Time;durP1;ratioP1;P1;durP2;ratioP2;P2;SDS_P1;SDS_P2;PMS_P1;PMS_P2;Temp;Humidity;BMP_temperature;BMP_pressure;BME280_temperature;BME280_humidity;BME280_pressure;Samples;Min_cycle;Max_cycle;Signal;HPM_P1;HPM_P2
2023/05/14 00:01:33;;;;;;;25.42;14.80;;;9.90;99.90;;;;;;5095572;27;20478;-72
2023/05/14 00:03:59;;;;;;;27.83;15.20;;;9.90;99.90;;;;;;5077142;28;20050;-72
2023/05/14 00:06:25;;;;;;;22.60;15.10;;;9.90;99.90;;;;;;5076192;28;20031;-72
2023/05/14 00:08:50;;;;;;;26.30;14.37;;;10.00;99.90;;;;;;5074864;28;20039;-72
2023/05/14 00:11:16;;;;;;;24.80;13.57;;;10.00;99.90;;;;;;5092930;28;20036;-72
2023/05/14 00:13:42;;;;;;;20.00;13.40;;;10.00;99.90;;;;;;5092681;28;20043;-72
2023/05/14 00:16:08;;;;;;;21.23;12.87;;;10.00;99.90;;;;;;5092554;28;20484;-72
2023/05/14 00:18:33;;;;;;;19.70;13.10;;;10.00;99.90;;;;;;5075240;28;20040;-72
2023/05/14 00:20:59;;;;;;;18.77;13.10;;;10.00;99.90;;;;;;5092060;28;20077;-72
2023/05/14 00:23:25;;;;;;;20.30;13.17;;;9.90;99.90;;;;;;5096353;28;20060;-72
2023/05/14 00:25:50;;;;;;;17.60;12.53;;;9.90;99.90;;;;;;5092026;28;20375;-72
2023/05/14 00:28:16;;;;;;;20.53;13.40;;;9.90;99.90;;;;;;5092105;28;20051;-72
2023/05/14 00:30:42;;;;;;;18.73;12.47;;;9.90;99.90;;;;;;5079505;28;20040;-72
2023/05/14 00:33:08;;;;;;;19.10;12.00;;;9.90;99.90;;;;;;5092081;28;20040;-72
2023/05/14 00:35:34;;;;;;;19.00;12.47;;;9.90;99.90;;;;;;5092325;28;20032;-72
2023/05/14 00:38:01;;;;;;;18.63;11.77;;;9.90;99.90;;;;;;5075206;28;20047;-72
2023/05/14 00:40:27;;;;;;;18.35;11.82;;;9.80;99.90;;;;;;5091728;28;20039;-72
2023/05/14 00:42:54;;;;;;;17.35;11.05;;;9.90;99.90;;;;;;5092542;28;20451;-72
2023/05/14 00:45:20;;;;;;;17.58;11.02;;;9.80;99.90;;;;;;5074704;28;20082;-72
2023/05/14 00:47:46;;;;;;;18.17;12.03;;;9.90;99.90;;;;;;5091645;28;20381;-72
2023/05/14 00:50:13;;;;;;;19.50;11.27;;;9.90;99.90;;;;;;5091193;28;20562;-72
2023/05/14 00:52:39;;;;;;;23.95;11.20;;;9.80;99.90;;;;;;5092087;28;20119;-72
2023/05/14 00:55:06;;;;;;;17.50;10.52;;;9.80;99.90;;;;;;5088172;28;20043;-72
2023/05/14 00:57:35;;;;;;;19.73;11.00;;;9.80;99.90;;;;;;5075583;27;20046;-72
2023/05/14 01:00:02;;;;;;;17.00;10.63;;;9.80;99.90;;;;;;5075338;27;20044;-72
2023/05/14 01:02:28;;;;;;;17.77;10.63;;;9.70;99.90;;;;;;5077116;28;20488;-72
2023/05/14 01:04:54;;;;;;;16.83;11.10;;;9.70;99.90;;;;;;5074152;28;20111;-72
2023/05/14 01:07:52;;;;;;;17.25;10.77;;;9.70;99.90;;;;;;5074823;28;20557;-72
2023/05/14 01:10:37;;;;;;;18.48;10.10;;;9.70;99.90;;;;;;5090870;28;20035;-72
2023/05/14 01:13:12;;;;;;;15.45;9.95;;;9.70;99.90;;;;;;5091686;28;20168;-72
2023/05/14 01:15:40;;;;;;;19.25;9.80;;;9.70;99.90;;;;;;5091152;28;20031;-72
2023/05/14 01:18:11;;;;;;;18.35;10.32;;;9.70;99.90;;;;;;5074471;28;20074;-72
2023/05/14 01:20:36;;;;;;;14.65;9.95;;;9.60;99.90;;;;;;5089514;27;20367;-72
2023/05/14 01:23:02;;;;;;;17.70;10.53;;;9.60;99.90;;;;;;5093537;28;20110;-72
2023/05/14 01:25:29;;;;;;;17.77;10.50;;;9.60;99.90;;;;;;5073798;28;20066;-72
2023/05/14 01:28:18;;;;;;;20.30;10.90;;;9.60;99.90;;;;;;5090638;28;20040;-72
2023/05/14 01:31:04;;;;;;;19.63;10.60;;;9.60;99.90;;;;;;5076647;28;20039;-72
2023/05/14 01:33:31;;;;;;;18.30;9.95;;;9.60;99.90;;;;;;5091060;28;20078;-72
2023/05/14 01:35:57;;;;;;;17.65;10.10;;;9.60;99.90;;;;;;5090868;28;20047;-72
2023/05/14 01:38:24;;;;;;;18.17;9.57;;;9.60;99.90;;;;;;5073614;28;20039;-72
2023/05/14 01:40:51;;;;;;;20.00;9.68;;;9.60;99.90;;;;;;5090981;28;20120;-72
2023/05/14 01:43:18;;;;;;;19.88;10.38;;;9.50;99.90;;;;;;5074525;28;20403;-72
2023/05/14 01:45:44;;;;;;;17.05;10.20;;;9.50;99.90;;;;;;5089862;28;20039;-72
2023/05/14 01:48:09;;;;;;;17.77;10.10;;;9.60;99.90;;;;;;5074080;28;20539;-72
2023/05/14 01:50:35;;;;;;;20.30;11.17;;;9.60;99.90;;;;;;5090439;28;20031;-72
2023/05/14 01:53:01;;;;;;;19.63;11.10;;;9.60;99.90;;;;;;5090996;28;20039;-72
2023/05/14 01:55:26;;;;;;;22.07;12.13;;;9.60;99.90;;;;;;5087975;28;20043;-72
2023/05/14 01:57:53;;;;;;;23.63;12.10;;;9.60;99.90;;;;;;5090995;28;20479;-72
2023/05/14 02:00:19;;;;;;;21.13;11.38;;;9.60;99.90;;;;;;5090625;28;20038;-72
2023/05/14 02:02:45;;;;;;;24.40;11.68;;;9.70;99.90;;;;;;5079535;28;20043;-72
2023/05/14 02:05:12;;;;;;;28.30;13.03;;;9.70;99.90;;;;;;5090939;28;20514;-72
2023/05/14 02:07:38;;;;;;;21.27;12.70;;;9.70;99.90;;;;;;5090134;28;20044;-72
2023/05/14 02:10:04;;;;;;;23.00;13.85;;;9.80;99.90;;;;;;5073651;28;20043;-72
2023/05/14 02:12:29;;;;;;;28.27;14.38;;;9.80;99.90;;;;;;5090215;28;20161;-72
2023/05/14 02:14:55;;;;;;;27.23;14.43;;;9.80;99.90;;;;;;5091229;28;20130;-72
2023/05/14 02:17:21;;;;;;;24.47;13.87;;;9.80;99.90;;;;;;5066351;28;20046;-72
2023/05/14 02:19:47;;;;;;;23.63;12.80;;;9.80;99.90;;;;;;5073891;28;20046;-72
2023/05/14 02:22:12;;;;;;;26.57;13.37;;;9.80;99.90;;;;;;5089855;28;20048;-71
2023/05/14 02:24:38;;;;;;;23.07;12.60;;;9.80;99.90;;;;;;5090795;28;20495;-71
2023/05/14 02:27:05;;;;;;;25.60;13.57;;;9.80;99.90;;;;;;5085845;28;20050;-71
2023/05/14 02:29:30;;;;;;;21.05;12.95;;;9.80;99.90;;;;;;5090341;28;20140;-71
2023/05/14 02:31:56;;;;;;;23.90;11.90;;;9.80;99.90;;;;;;5077555;28;20120;-71
2023/05/14 02:34:22;;;;;;;23.37;11.53;;;9.80;99.90;;;;;;5073662;28;20543;-71
2023/05/14 02:36:48;;;;;;;22.67;11.87;;;9.70;99.90;;;;;;5089958;28;20408;-71
2023/05/14 02:39:13;;;;;;;22.63;11.63;;;9.70;99.90;;;;;;5073470;28;20164;-71
2023/05/14 02:41:39;;;;;;;24.43;11.93;;;9.70;99.90;;;;;;5090273;28;20070;-71
2023/05/14 02:44:05;;;;;;;26.03;12.73;;;9.70;99.90;;;;;;5073548;28;20040;-71
2023/05/14 02:46:31;;;;;;;23.67;11.30;;;9.70;99.90;;;;;;5089040;28;20077;-72
2023/05/14 02:48:57;;;;;;;23.15;12.40;;;9.70;99.90;;;;;;5090093;28;20097;-72
2023/05/14 02:51:23;;;;;;;23.92;11.98;;;9.70;99.90;;;;;;5073213;28;20278;-72
2023/05/14 02:53:49;;;;;;;18.73;11.20;;;9.70;99.90;;;;;;5069819;28;20127;-72
2023/05/14 02:56:15;;;;;;;24.40;11.63;;;9.70;99.90;;;;;;5089526;28;20153;-72
2023/05/14 02:58:41;;;;;;;22.27;11.57;;;9.70;99.90;;;;;;5090910;28;20116;-72
2023/05/14 03:01:07;;;;;;;27.03;12.43;;;9.70;99.90;;;;;;5089762;28;20059;-72
2023/05/14 03:03:33;;;;;;;22.75;12.35;;;9.70;99.90;;;;;;5090970;28;20045;-72
2023/05/14 03:05:59;;;;;;;23.33;12.13;;;9.70;99.90;;;;;;5090090;28;20467;-72
2023/05/14 03:08:25;;;;;;;27.60;12.63;;;9.70;99.90;;;;;;5089683;28;20126;-72
2023/05/14 03:10:50;;;;;;;27.77;12.20;;;9.70;99.90;;;;;;5089929;28;20484;-72
2023/05/14 03:13:18;;;;;;;24.53;12.93;;;9.70;99.90;;;;;;5089841;28;20126;-72
2023/05/14 03:15:45;;;;;;;27.98;13.57;;;9.60;99.90;;;;;;5089616;28;20035;-72
2023/05/14 03:18:14;;;;;;;23.15;12.85;;;9.70;99.90;;;;;;5089938;28;20119;-72
2023/05/14 03:20:40;;;;;;;26.77;13.50;;;9.70;99.90;;;;;;5073089;28;20051;-72
2023/05/14 03:23:06;;;;;;;24.17;13.73;;;9.70;99.90;;;;;;5073363;28;20048;-72
2023/05/14 03:25:33;;;;;;;28.50;14.57;;;9.60;99.90;;;;;;5099999;28;20490;-72
2023/05/14 03:27:58;;;;;;;27.75;14.25;;;9.70;99.90;;;;;;5073219;28;20032;-72
2023/05/14 03:30:24;;;;;;;26.40;14.20;;;9.70;99.90;;;;;;5077145;28;20409;-72
2023/05/14 03:32:50;;;;;;;27.27;14.37;;;9.70;99.90;;;;;;5076373;28;20036;-72
2023/05/14 03:35:16;;;;;;;21.73;13.77;;;9.70;99.90;;;;;;5076310;28;20039;-72
2023/05/14 03:37:42;;;;;;;23.57;12.80;;;9.70;99.90;;;;;;5093327;28;20312;-72
2023/05/14 03:40:08;;;;;;;25.20;13.10;;;9.70;99.90;;;;;;5076139;28;20043;-72
2023/05/14 03:42:34;;;;;;;24.88;13.50;;;9.70;99.90;;;;;;5092917;28;20046;-72
2023/05/14 03:44:59;;;;;;;25.70;13.30;;;9.70;99.90;;;;;;5090965;28;20047;-72
2023/05/14 03:47:25;;;;;;;23.00;12.43;;;9.70;99.90;;;;;;5092966;28;20039;-72
2023/05/14 03:49:51;;;;;;;29.13;13.80;;;9.70;99.90;;;;;;5075811;28;20595;-72
2023/05/14 03:52:16;;;;;;;28.10;13.60;;;9.80;99.90;;;;;;5093231;28;20036;-72
2023/05/14 03:54:42;;;;;;;28.63;13.67;;;9.80;99.90;;;;;;5075531;28;20055;-72
2023/05/14 03:57:08;;;;;;;28.63;13.13;;;9.80;99.90;;;;;;5093459;28;20043;-72
2023/05/14 03:59:33;;;;;;;24.77;12.37;;;9.90;99.90;;;;;;5092908;28;20044;-72
2023/05/14 04:01:59;;;;;;;27.10;11.60;;;10.00;99.90;;;;;;5093692;28;20447;-72
2023/05/14 04:04:25;;;;;;;26.87;11.93;;;10.00;99.90;;;;;;5072344;28;20087;-72
2023/05/14 04:06:50;;;;;;;29.50;11.77;;;10.10;99.90;;;;;;5092735;28;20035;-72
2023/05/14 04:09:16;;;;;;;31.63;13.10;;;10.20;99.90;;;;;;5076135;28;20085;-72
2023/05/14 04:11:42;;;;;;;20.47;12.03;;;10.20;99.90;;;;;;5092842;28;20135;-72
2023/05/14 04:14:08;;;;;;;24.20;12.77;;;10.20;99.90;;;;;;5092301;28;20032;-72
2023/05/14 04:16:33;;;;;;;24.63;12.00;;;10.20;99.90;;;;;;5091772;28;20169;-72
2023/05/14 04:19:01;;;;;;;28.33;12.57;;;10.20;99.90;;;;;;5075496;28;20066;-72
2023/05/14 04:21:27;;;;;;;22.15;11.70;;;10.20;99.90;;;;;;5093240;28;20481;-72
2023/05/14 04:23:53;;;;;;;29.00;12.37;;;10.20;99.90;;;;;;5093746;28;20051;-72
2023/05/14 04:26:18;;;;;;;28.27;12.13;;;10.20;99.90;;;;;;5091978;28;20043;-72
2023/05/14 04:28:44;;;;;;;24.07;12.43;;;10.30;99.90;;;;;;5092206;28;20044;-72
2023/05/14 04:31:10;;;;;;;23.37;11.57;;;10.30;99.90;;;;;;5092510;28;20454;-72
2023/05/14 04:33:36;;;;;;;26.00;12.23;;;10.30;99.90;;;;;;5092308;28;20127;-72
2023/05/14 04:36:03;;;;;;;22.20;11.70;;;10.40;99.90;;;;;;5075331;28;20135;-72
2023/05/14 04:38:30;;;;;;;27.52;12.02;;;10.40;99.90;;;;;;5072419;28;20513;-72
2023/05/14 04:40:57;;;;;;;26.40;13.02;;;10.50;99.90;;;;;;5091047;28;20088;-73
2023/05/14 04:43:23;;;;;;;22.70;12.05;;;10.50;99.90;;;;;;5092540;28;20470;-72
2023/05/14 04:45:49;;;;;;;26.20;12.03;;;10.50;99.90;;;;;;5073508;28;20089;-72
2023/05/14 04:48:16;;;;;;;27.15;13.63;;;10.60;99.90;;;;;;5075623;28;20039;-72
2023/05/14 04:50:43;;;;;;;31.80;13.57;;;10.60;99.90;;;;;;5074614;28;20118;-72
2023/05/14 04:53:09;;;;;;;26.90;12.68;;;10.60;99.90;;;;;;5075131;28;20043;-72
2023/05/14 04:55:35;;;;;;;25.58;13.23;;;10.70;99.90;;;;;;5074137;28;20395;-72
2023/05/14 04:58:01;;;;;;;27.73;12.73;;;10.70;99.90;;;;;;5091971;28;20040;-72
2023/05/14 05:00:27;;;;;;;26.00;12.30;;;10.70;99.90;;;;;;5092122;28;20480;-72
2023/05/14 05:02:53;;;;;;;25.80;12.70;;;10.70;99.90;;;;;;5091621;28;20039;-72
2023/05/14 05:05:19;;;;;;;27.77;12.27;;;10.80;99.90;;;;;;5091228;28;20054;-72
2023/05/14 05:07:45;;;;;;;23.95;12.05;;;10.80;99.90;;;;;;5089086;28;20448;-72
2023/05/14 05:10:11;;;;;;;26.10;12.00;;;10.80;99.90;;;;;;5091259;28;20130;-72
2023/05/14 05:12:37;;;;;;;25.20;12.80;;;10.90;99.90;;;;;;5074890;28;20559;-72
2023/05/14 05:15:03;;;;;;;22.30;11.93;;;11.00;99.90;;;;;;5090706;28;20051;-72
2023/05/14 05:17:29;;;;;;;21.27;11.32;;;11.00;99.90;;;;;;5071005;28;20032;-72
2023/05/14 05:19:54;;;;;;;27.87;12.03;;;11.10;99.90;;;;;;5088016;28;20179;-72
2023/05/14 05:22:20;;;;;;;25.77;12.13;;;11.20;99.90;;;;;;5094782;28;20298;-72
2023/05/14 05:24:46;;;;;;;21.33;11.87;;;11.30;99.90;;;;;;5077569;28;20039;-72
2023/05/14 05:27:12;;;;;;;26.97;12.07;;;11.30;99.90;;;;;;5073989;28;20368;-72
2023/05/14 05:29:37;;;;;;;27.17;11.47;;;11.40;99.90;;;;;;5073852;28;20035;-72
2023/05/14 05:32:04;;;;;;;27.33;11.67;;;11.40;99.90;;;;;;5091044;28;20028;-72
2023/05/14 05:34:30;;;;;;;20.42;11.07;;;11.50;99.90;;;;;;5074306;28;20379;-72
2023/05/14 05:36:56;;;;;;;22.33;11.30;;;11.50;99.90;;;;;;5074050;28;20039;-72
2023/05/14 05:39:21;;;;;;;27.17;11.57;;;11.60;99.90;;;;;;5074119;28;20038;-72
2023/05/14 05:41:47;;;;;;;29.50;12.57;;;11.70;99.90;;;;;;5074485;28;20115;-72
2023/05/14 05:44:13;;;;;;;19.50;12.20;;;11.70;99.90;;;;;;5073852;28;20043;-72
2023/05/14 05:46:38;;;;;;;20.53;12.10;;;11.80;99.90;;;;;;5083644;28;20097;-72
2023/05/14 05:49:04;;;;;;;28.30;12.77;;;11.90;99.90;;;;;;5091136;28;20043;-72
2023/05/14 05:51:30;;;;;;;25.90;12.50;;;12.00;99.90;;;;;;5073807;28;20039;-72
2023/05/14 05:53:56;;;;;;;24.50;13.40;;;12.00;99.90;;;;;;5086195;28;20067;-72
2023/05/14 05:56:22;;;;;;;27.40;12.40;;;12.20;99.90;;;;;;5091314;28;20281;-72
2023/05/14 05:58:47;;;;;;;23.80;12.03;;;12.40;99.90;;;;;;5090082;28;20193;-72
2023/05/14 06:01:13;;;;;;;27.57;12.93;;;12.50;99.90;;;;;;5073856;28;20043;-72
2023/05/14 06:03:39;;;;;;;22.73;13.13;;;12.70;99.90;;;;;;5090077;28;20035;-72
2023/05/14 06:06:05;;;;;;;26.50;12.63;;;12.90;99.90;;;;;;5090725;28;20047;-72
2023/05/14 06:08:31;;;;;;;24.17;12.30;;;13.00;99.90;;;;;;5073482;28;20047;-72
2023/05/14 06:10:56;;;;;;;20.80;11.67;;;13.10;99.90;;;;;;5090580;28;20297;-72
2023/05/14 06:13:22;;;;;;;29.10;11.60;;;13.20;99.90;;;;;;5089580;28;20039;-73
2023/05/14 06:15:48;;;;;;;24.00;11.73;;;13.30;99.90;;;;;;5081143;28;20043;-72
2023/05/14 06:18:13;;;;;;;22.50;11.37;;;13.20;99.90;;;;;;5073107;28;20043;-72
2023/05/14 06:20:40;;;;;;;18.83;9.93;;;13.30;99.90;;;;;;5073363;28;20047;-72
2023/05/14 06:23:06;;;;;;;23.00;10.23;;;13.30;99.90;;;;;;5090223;28;20428;-72
2023/05/14 06:25:32;;;;;;;17.17;9.70;;;13.30;99.90;;;;;;5083937;28;20586;-72
2023/05/14 06:27:58;;;;;;;19.77;10.03;;;13.40;99.90;;;;;;5072996;28;20289;-73
2023/05/14 06:30:24;;;;;;;18.10;9.53;;;13.50;99.90;;;;;;5073277;28;20484;-72
2023/05/14 06:32:50;;;;;;;18.03;9.53;;;13.70;99.90;;;;;;5090544;28;20046;-72
2023/05/14 06:35:17;;;;;;;14.93;8.63;;;13.90;99.90;;;;;;5090780;28;20046;-72
2023/05/14 06:37:43;;;;;;;16.83;9.13;;;14.00;99.90;;;;;;5090310;28;20357;-73
2023/05/14 06:40:09;;;;;;;19.63;9.30;;;14.20;99.90;;;;;;5090092;28;20622;-73
2023/05/14 06:42:35;;;;;;;13.90;7.40;;;14.40;99.90;;;;;;5073574;28;20368;-73
2023/05/14 06:45:01;;;;;;;17.43;7.87;;;14.60;99.90;;;;;;5076427;28;20372;-72
2023/05/14 06:47:26;;;;;;;13.27;7.70;;;14.80;99.90;;;;;;5094050;28;20081;-70
2023/05/14 06:49:52;;;;;;;15.07;7.33;;;14.90;99.90;;;;;;5090183;28;20391;-72
2023/05/14 06:52:18;;;;;;;14.33;7.37;;;15.00;99.90;;;;;;5089770;28;20040;-72
2023/05/14 06:54:44;;;;;;;15.33;6.70;;;15.10;99.90;;;;;;5070198;28;20047;-72
2023/05/14 06:57:09;;;;;;;15.50;6.67;;;15.20;99.90;;;;;;5073188;28;20031;-71
2023/05/14 06:59:35;;;;;;;13.63;6.43;;;15.40;99.90;;;;;;5090071;28;20027;-71
2023/05/14 07:02:02;;;;;;;15.13;6.80;;;15.50;99.90;;;;;;5072462;28;20082;-71
2023/05/14 07:04:27;;;;;;;15.53;7.10;;;15.50;99.90;;;;;;5093645;28;20066;-72
2023/05/14 07:06:53;;;;;;;15.23;7.00;;;15.50;99.90;;;;;;5079449;28;20780;-72
2023/05/14 07:09:19;;;;;;;15.97;6.33;;;15.50;99.90;;;;;;5096018;28;20400;-73
2023/05/14 07:11:44;;;;;;;15.33;6.40;;;15.50;99.90;;;;;;5088643;28;20119;-72
2023/05/14 07:14:10;;;;;;;16.43;6.50;;;15.50;99.90;;;;;;5098120;28;20499;-72
2023/05/14 07:16:36;;;;;;;12.23;6.00;;;15.40;99.90;;;;;;5079578;28;20039;-73
2023/05/14 07:19:01;;;;;;;15.17;5.40;;;15.40;99.90;;;;;;5078351;28;20483;-73
2023/05/14 07:21:27;;;;;;;17.07;6.43;;;15.50;99.90;;;;;;5077350;28;20161;-72
2023/05/14 07:23:53;;;;;;;12.43;5.33;;;15.50;99.90;;;;;;5078294;28;20350;-72
2023/05/14 07:26:20;;;;;;;11.30;5.53;;;15.60;99.90;;;;;;5078488;28;20475;-73
2023/05/14 07:28:45;;;;;;;12.57;5.57;;;15.60;99.90;;;;;;5078150;28;20042;-72
2023/05/14 07:31:11;;;;;;;17.80;6.00;;;15.80;99.90;;;;;;5076745;28;20844;-72
2023/05/14 07:33:37;;;;;;;12.13;5.63;;;16.10;99.90;;;;;;5095946;28;20051;-73
2023/05/14 07:36:03;;;;;;;12.67;5.57;;;16.30;99.90;;;;;;5078479;28;20039;-73
2023/05/14 07:38:29;;;;;;;11.23;5.57;;;16.60;99.90;;;;;;5065223;28;20084;-73
2023/05/14 07:40:55;;;;;;;18.10;6.73;;;16.80;99.90;;;;;;5094999;28;20932;-73
2023/05/14 07:43:21;;;;;;;13.37;5.93;;;16.80;99.90;;;;;;5095373;28;20372;-72
2023/05/14 07:45:47;;;;;;;13.73;5.60;;;16.90;99.90;;;;;;5096740;28;20047;-72
2023/05/14 07:48:12;;;;;;;9.77;5.17;;;17.00;99.90;;;;;;5097175;28;20092;-73
2023/05/14 07:50:38;;;;;;;14.73;5.50;;;17.00;99.90;;;;;;5078267;28;20031;-73
2023/05/14 07:53:04;;;;;;;13.87;5.37;;;17.10;99.90;;;;;;5094647;28;20051;-73
2023/05/14 07:55:30;;;;;;;13.63;5.40;;;17.00;99.90;;;;;;5077769;28;20035;-73
2023/05/14 07:57:55;;;;;;;15.03;5.23;;;16.90;99.90;;;;;;5095177;28;20138;-72
2023/05/14 08:00:21;;;;;;;12.60;5.07;;;16.90;99.90;;;;;;5096450;28;20749;-72
2023/05/14 08:02:48;;;;;;;17.33;5.73;;;17.00;99.90;;;;;;5093421;28;20035;-73
2023/05/14 08:05:14;;;;;;;16.87;5.67;;;17.10;99.90;;;;;;5078636;28;20373;-73
2023/05/14 08:07:40;;;;;;;15.50;5.57;;;17.10;99.90;;;;;;5094504;28;20485;-74
2023/05/14 08:10:06;;;;;;;15.97;5.60;;;17.30;99.90;;;;;;5094178;28;20274;-72
2023/05/14 08:12:32;;;;;;;15.57;5.50;;;17.30;99.90;;;;;;5092629;28;20739;-72
2023/05/14 08:14:58;;;;;;;14.80;5.03;;;17.30;99.90;;;;;;5093635;28;20373;-73
2023/05/14 08:17:24;;;;;;;12.13;5.60;;;17.40;99.90;;;;;;5093000;28;20392;-71
2023/05/14 08:19:49;;;;;;;16.13;5.73;;;17.40;99.90;;;;;;5092751;28;20039;-71
2023/05/14 08:22:15;;;;;;;11.07;5.30;;;17.30;99.90;;;;;;5091575;28;20487;-71
2023/05/14 08:24:42;;;;;;;15.50;5.90;;;17.30;99.90;;;;;;5076670;28;20090;-72
2023/05/14 08:27:08;;;;;;;10.90;5.97;;;17.20;99.90;;;;;;5094293;28;20491;-72
2023/05/14 08:29:34;;;;;;;8.47;5.30;;;17.20;99.90;;;;;;5093727;28;20277;-72
2023/05/14 08:32:00;;;;;;;14.53;6.27;;;17.20;99.90;;;;;;5092600;28;20788;-73
2023/05/14 08:34:26;;;;;;;13.33;5.87;;;17.10;99.90;;;;;;5092297;28;20100;-72
2023/05/14 08:36:52;;;;;;;13.47;5.50;;;17.00;99.90;;;;;;5093077;28;20118;-71
2023/05/14 08:39:18;;;;;;;14.10;5.67;;;17.10;99.90;;;;;;5093572;28;20373;-72
2023/05/14 08:41:44;;;;;;;17.67;6.20;;;17.00;99.90;;;;;;5092314;28;20039;-72
2023/05/14 08:44:17;;;;;;;13.57;6.17;;;17.00;99.90;;;;;;5075020;28;20055;-72
2023/05/14 08:46:43;;;;;;;16.23;6.30;;;17.00;99.80;;;;;;5093040;28;20285;-73
2023/05/14 08:50:01;;;;;;;16.07;5.87;;;17.10;99.90;;;;;;5092838;28;20296;-72
2023/05/14 08:52:27;;;;;;;16.10;6.10;;;17.20;98.70;;;;;;4991862;28;20312;-72
2023/05/14 08:54:54;;;;;;;11.70;5.43;;;17.20;99.90;;;;;;4991396;28;20297;-72
2023/05/14 08:57:23;;;;;;;18.50;6.23;;;17.30;99.90;;;;;;5054186;27;20063;-73
2023/05/14 08:59:50;;;;;;;13.23;5.60;;;17.30;99.90;;;;;;5096330;28;20332;-73
2023/05/14 09:02:18;;;;;;;14.83;5.97;;;17.20;98.60;;;;;;5096780;28;20316;-73
2023/05/14 09:04:44;;;;;;;12.53;6.23;;;17.20;98.70;;;;;;5072517;28;20321;-73
2023/05/14 09:07:10;;;;;;;13.23;5.40;;;17.20;99.90;;;;;;5070017;27;20329;-72
2023/05/14 09:09:37;;;;;;;14.47;5.97;;;17.30;99.70;;;;;;5095897;27;20300;-72
2023/05/14 09:12:03;;;;;;;13.17;5.80;;;17.50;99.90;;;;;;5072659;28;20721;-72
2023/05/14 09:14:29;;;;;;;18.07;7.57;;;17.70;99.90;;;;;;5090023;28;20334;-72
2023/05/14 09:16:55;;;;;;;11.40;5.60;;;17.80;99.10;;;;;;5095061;28;20635;-72
2023/05/14 09:19:21;;;;;;;12.70;5.90;;;17.70;96.50;;;;;;5075892;28;20026;-72
2023/05/14 09:21:48;;;;;;;12.80;7.00;;;17.70;97.60;;;;;;5096508;28;20289;-72
2023/05/14 09:24:21;;;;;;;16.33;6.63;;;17.70;97.10;;;;;;5091276;28;20050;-72
2023/05/14 09:26:55;;;;;;;16.23;7.23;;;17.80;98.40;;;;;;5073704;28;20845;-73
2023/05/14 09:29:24;;;;;;;13.93;6.90;;;17.90;96.30;;;;;;5090627;28;20289;-72
2023/05/14 09:31:51;;;;;;;15.73;7.00;;;17.90;97.00;;;;;;5074175;28;20858;-72
2023/05/14 09:34:31;;;;;;;11.93;6.50;;;17.80;97.70;;;;;;5090732;28;20372;-72
2023/05/14 09:37:02;;;;;;;15.93;7.23;;;17.90;96.50;;;;;;5090891;28;20691;-72
2023/05/14 09:39:28;;;;;;;12.50;6.97;;;17.90;95.20;;;;;;5074002;28;20281;-72
2023/05/14 09:41:55;;;;;;;12.50;6.57;;;17.90;95.60;;;;;;5090357;28;20585;-72
2023/05/14 09:44:21;;;;;;;13.00;6.80;;;18.00;95.10;;;;;;5090069;28;20288;-72
2023/05/14 09:46:48;;;;;;;14.70;7.00;;;18.00;96.80;;;;;;5091122;28;20668;-72
2023/05/14 09:49:14;;;;;;;11.87;7.23;;;18.10;97.20;;;;;;5073150;28;20278;-72
2023/05/14 09:51:40;;;;;;;10.67;6.57;;;18.20;95.80;;;;;;5095234;27;20304;-72
2023/05/14 09:54:06;;;;;;;14.10;6.90;;;18.40;96.00;;;;;;5077911;28;20097;-72
2023/05/14 09:56:33;;;;;;;13.00;6.47;;;18.50;94.20;;;;;;5091109;28;20365;-73
2023/05/14 09:58:59;;;;;;;13.43;7.77;;;18.60;93.50;;;;;;5078711;28;20281;-72
2023/05/14 10:01:27;;;;;;;15.57;7.27;;;18.70;94.70;;;;;;5089378;28;20328;-72
2023/05/14 10:03:54;;;;;;;17.77;6.93;;;18.90;93.70;;;;;;5089632;28;20645;-72
2023/05/14 10:06:24;;;;;;;14.27;7.27;;;19.00;93.70;;;;;;5090974;28;20278;-73
2023/05/14 10:08:56;;;;;;;14.07;6.27;;;19.10;92.90;;;;;;5091042;28;20818;-72
2023/05/14 10:11:25;;;;;;;13.00;6.27;;;19.10;92.80;;;;;;5073946;28;20377;-72
2023/05/14 10:14:08;;;;;;;10.00;5.90;;;19.10;93.60;;;;;;5090439;28;20286;-72
2023/05/14 10:16:37;;;;;;;13.33;5.23;;;19.20;93.00;;;;;;5095065;28;20361;-72
2023/05/14 10:19:10;;;;;;;14.47;6.77;;;19.20;93.10;;;;;;5090839;28;20115;-72
2023/05/14 10:21:39;;;;;;;12.97;6.60;;;19.30;92.80;;;;;;5074453;28;20304;-72
2023/05/14 10:24:06;;;;;;;10.50;5.43;;;19.40;91.90;;;;;;5083431;28;20297;-72
2023/05/14 10:26:34;;;;;;;11.80;6.40;;;19.50;87.70;;;;;;5067860;28;20289;-73
2023/05/14 10:29:00;;;;;;;12.17;6.33;;;19.50;89.20;;;;;;5088414;28;20044;-73
2023/05/14 10:31:44;;;;;;;12.90;6.10;;;19.50;91.40;;;;;;5073234;28;20039;-72
2023/05/14 10:34:36;;;;;;;12.93;6.43;;;19.60;89.10;;;;;;5071394;28;20063;-72
2023/05/14 10:37:09;;;;;;;12.50;6.77;;;19.60;88.10;;;;;;5095138;28;20067;-72
2023/05/14 10:39:52;;;;;;;13.00;6.53;;;19.70;88.70;;;;;;5077428;28;20039;-72
2023/05/14 10:42:24;;;;;;;13.17;7.00;;;19.80;89.60;;;;;;5092375;28;20051;-72
2023/05/14 10:44:57;;;;;;;10.90;6.20;;;19.80;89.60;;;;;;5092749;28;20709;-72
2023/05/14 10:47:28;;;;;;;10.90;7.03;;;19.90;89.20;;;;;;5072986;28;20051;-72
2023/05/14 10:49:56;;;;;;;12.70;6.23;;;20.00;88.80;;;;;;5093219;28;20058;-73
2023/05/14 10:52:23;;;;;;;11.87;6.37;;;20.20;89.70;;;;;;5094149;28;20315;-73
2023/05/14 10:54:54;;;;;;;13.83;6.23;;;20.40;88.20;;;;;;5094127;28;20036;-73
2023/05/14 10:57:23;;;;;;;11.63;6.07;;;20.50;89.00;;;;;;5087761;28;20066;-73
2023/05/14 10:59:54;;;;;;;13.90;5.80;;;20.70;88.70;;;;;;5073134;28;20520;-73
2023/05/14 11:02:24;;;;;;;11.63;6.17;;;20.90;86.90;;;;;;5087775;28;20048;-73
2023/05/14 11:05:04;;;;;;;12.47;6.83;;;20.90;86.20;;;;;;5069290;28;20254;-73
2023/05/14 11:07:37;;;;;;;10.27;6.73;;;21.10;85.40;;;;;;5069479;28;20098;-72
2023/05/14 11:10:07;;;;;;;12.33;7.47;;;21.10;84.50;;;;;;5071139;28;20039;-72
2023/05/14 11:12:39;;;;;;;14.33;6.73;;;21.10;85.00;;;;;;5076627;28;20039;-72
2023/05/14 11:15:08;;;;;;;12.57;7.03;;;21.10;86.00;;;;;;5090537;27;20076;-72
2023/05/14 11:17:35;;;;;;;13.40;8.27;;;21.10;84.60;;;;;;5088394;28;20491;-72
2023/05/14 11:20:01;;;;;;;16.97;8.17;;;21.10;85.20;;;;;;5091071;28;20036;-72
2023/05/14 11:22:27;;;;;;;13.60;7.93;;;21.10;85.80;;;;;;5076097;28;20052;-73
2023/05/14 11:24:53;;;;;;;11.07;7.27;;;21.10;84.60;;;;;;5077122;28;20681;-73
2023/05/14 11:27:21;;;;;;;12.10;6.43;;;21.20;86.40;;;;;;5094396;28;20054;-73
2023/05/14 11:29:48;;;;;;;10.23;6.10;;;21.20;83.20;;;;;;5094453;28;20075;-73
2023/05/14 11:32:15;;;;;;;10.30;6.20;;;21.10;82.20;;;;;;5075929;28;20053;-73
2023/05/14 11:34:43;;;;;;;11.30;6.27;;;21.10;81.60;;;;;;5076587;28;20460;-72
2023/05/14 11:37:11;;;;;;;11.30;6.47;;;21.10;81.30;;;;;;5072825;28;20084;-73
2023/05/14 11:39:38;;;;;;;12.90;7.00;;;21.10;81.80;;;;;;5089379;28;20043;-72
2023/05/14 11:42:08;;;;;;;11.87;6.80;;;21.00;80.70;;;;;;5091319;28;20150;-72
2023/05/14 11:44:34;;;;;;;11.57;6.80;;;20.90;81.50;;;;;;5099449;27;20046;-74
2023/05/14 11:47:03;;;;;;;11.13;6.87;;;20.90;83.00;;;;;;5097238;28;20103;-72
2023/05/14 11:49:30;;;;;;;10.67;6.27;;;20.90;83.10;;;;;;5076237;28;20059;-72
2023/05/14 11:52:01;;;;;;;12.23;6.67;;;21.10;82.10;;;;;;5074872;28;20096;-72
2023/05/14 11:54:33;;;;;;;12.17;6.83;;;21.20;80.10;;;;;;5086945;28;20040;-72
2023/05/14 11:57:02;;;;;;;10.57;6.63;;;21.40;78.70;;;;;;5090059;28;20031;-73
2023/05/14 11:59:30;;;;;;;11.27;6.47;;;21.50;81.10;;;;;;5072582;28;20651;-73
2023/05/14 12:01:57;;;;;;;11.57;6.70;;;21.60;79.90;;;;;;5069117;28;20068;-72
2023/05/14 12:04:23;;;;;;;10.50;6.63;;;21.70;80.00;;;;;;5088534;28;20042;-72
2023/05/14 12:06:50;;;;;;;12.47;6.30;;;21.80;77.50;;;;;;5090447;28;20123;-72
2023/05/14 12:09:19;;;;;;;13.17;6.93;;;21.90;77.40;;;;;;5086156;28;20043;-73
2023/05/14 12:11:47;;;;;;;11.30;6.77;;;22.00;78.40;;;;;;5090328;28;20035;-72
2023/05/14 12:14:40;;;;;;;12.00;6.80;;;22.10;79.80;;;;;;5086124;28;20044;-73
2023/05/14 12:17:14;;;;;;;11.53;7.10;;;22.30;76.50;;;;;;5091105;28;20035;-73
2023/05/14 12:19:41;;;;;;;12.45;7.03;;;22.40;76.40;;;;;;5074895;28;20032;-74
2023/05/14 12:22:09;;;;;;;10.73;6.47;;;22.30;74.00;;;;;;5091149;28;20458;-73
2023/05/14 12:24:35;;;;;;;10.40;6.50;;;22.30;73.70;;;;;;5090847;28;20715;-73
2023/05/14 12:27:02;;;;;;;9.27;6.47;;;22.30;74.30;;;;;;5074088;28;20101;-74
2023/05/14 12:29:27;;;;;;;9.20;5.80;;;22.30;73.40;;;;;;5094740;28;20062;-72
2023/05/14 12:31:56;;;;;;;11.00;6.87;;;22.20;73.60;;;;;;5094411;28;20625;-73
2023/05/14 12:34:22;;;;;;;12.90;6.53;;;22.10;74.10;;;;;;5072303;28;20044;-73
2023/05/14 12:36:47;;;;;;;9.70;6.17;;;22.10;75.70;;;;;;5091674;28;20564;-73